Time;durP1;ratioP1;P1;durP2;ratioP2;P2;SDS_P1;SDS_P2;PMS_P1;PMS_P2;Temp;Humidity;BMP_temperature;BMP_pressure;BME280_temperature;BME280_humidity;BME280_pressure;Samples;Min_cycle;Max_cycle;Signal;HPM_P1;HPM_P2
2022/12/24 00:00:23;;;;;;;17.64;16.09;;;;;;;4.64;66.26;100890.08;462910;114;922981;-82
2022/12/24 00:01:27;;;;;;;18.41;16.68;;;;;;;4.63;66.34;100891.94;462919;114;923039;-82
2022/12/24 00:02:30;;;;;;;20.02;16.53;;;;;;;4.63;66.30;100891.94;462330;114;930636;-82
2022/12/24 00:03:35;;;;;;;21.46;17.16;;;;;;;4.63;66.27;100896.52;462997;114;922469;-82
2022/12/24 00:04:38;;;;;;;18.12;16.40;;;;;;;4.62;66.26;100894.83;462778;114;922542;-82
2022/12/24 00:05:41;;;;;;;18.62;16.74;;;;;;;4.61;66.26;100888.58;462971;114;922579;-81
2022/12/24 00:06:46;;;;;;;18.30;16.42;;;;;;;4.61;66.30;100893.98;463988;111;922025;-81
2022/12/24 00:07:49;;;;;;;19.16;17.19;;;;;;;4.60;66.41;100889.59;463950;111;922119;-79
2022/12/24 00:08:52;;;;;;;24.16;16.81;;;;;;;4.60;66.42;100886.04;464379;111;922177;-80
2022/12/24 00:09:55;;;;;;;19.29;16.49;;;;;;;4.59;66.34;100882.49;464327;111;922098;-80
2022/12/24 00:10:59;;;;;;;19.86;16.50;;;;;;;4.60;66.38;100883.34;464332;111;922017;-80
2022/12/24 00:12:02;;;;;;;19.66;17.39;;;;;;;4.60;66.40;100881.48;464306;111;922316;-82
2022/12/24 00:13:05;;;;;;;19.24;17.27;;;;;;;4.60;66.40;100881.48;452134;113;922115;-80
2022/12/24 00:14:08;;;;;;;17.87;16.15;;;;;;;4.60;66.45;100881.48;459916;111;922233;-80
2022/12/24 00:15:11;;;;;;;19.79;17.24;;;;;;;4.60;66.50;100881.48;454455;115;922140;-81
2022/12/24 00:16:15;;;;;;;18.94;16.07;;;;;;;4.60;66.48;100880.64;450475;118;921948;-81
2022/12/24 00:17:18;;;;;;;18.46;16.62;;;;;;;4.61;66.57;100880.48;458085;113;930046;-80
2022/12/24 00:18:21;;;;;;;17.92;16.19;;;;;;;4.61;66.59;100876.93;464334;114;922530;-82
2022/12/24 00:19:25;;;;;;;18.76;16.89;;;;;;;4.63;66.58;100876.77;464316;113;922238;-81
2022/12/24 00:20:28;;;;;;;18.52;16.61;;;;;;;4.63;66.64;100875.73;464240;113;922229;-81
2022/12/24 00:21:31;;;;;;;23.77;17.95;;;;;;;4.63;66.64;100878.43;464261;113;926900;-81
2022/12/24 00:22:34;;;;;;;18.09;16.41;;;;;;;4.66;66.70;100873.72;462252;113;922036;-80
2022/12/24 00:23:37;;;;;;;17.94;16.34;;;;;;;4.67;66.85;100870.01;460055;115;922311;-81
2022/12/24 00:24:40;;;;;;;18.01;16.31;;;;;;;4.68;66.94;100866.30;460063;115;922008;-81
2022/12/24 00:25:44;;;;;;;18.26;16.53;;;;;;;4.70;67.01;100873.20;460044;111;922182;-79
2022/12/24 00:26:47;;;;;;;19.55;16.41;;;;;;;4.71;66.92;100872.20;459979;115;921980;-81
2022/12/24 00:27:50;;;;;;;19.24;16.60;;;;;;;4.72;66.96;100870.34;463209;113;930440;-81
2022/12/24 00:28:54;;;;;;;18.66;16.99;;;;;;;4.74;66.98;100865.62;463547;113;922504;-81
2022/12/24 00:29:57;;;;;;;18.32;16.07;;;;;;;4.74;67.00;100865.62;463213;114;922481;-82
2022/12/24 00:31:09;;;;;;;18.85;16.54;;;;;;;4.75;67.04;100865.44;463234;114;922750;-82
2022/12/24 00:32:13;;;;;;;20.81;15.55;;;;;;;4.76;67.11;100869.83;462071;114;922477;-82
2022/12/24 00:33:16;;;;;;;19.87;17.79;;;;;;;4.78;67.10;100866.97;458904;115;922632;-83
2022/12/24 00:34:22;;;;;;;19.14;17.29;;;;;;;4.79;66.99;100857.85;458683;115;922403;-84
2022/12/24 00:35:26;;;;;;;20.32;16.99;;;;;;;4.78;67.07;100870.52;458507;115;922542;-82
2022/12/24 00:36:29;;;;;;;18.65;16.76;;;;;;;4.79;67.17;100864.09;458301;116;922599;-83
2022/12/24 00:37:32;;;;;;;18.17;16.45;;;;;;;4.80;67.13;100864.91;458652;115;930442;-79
2022/12/24 00:38:36;;;;;;;23.12;18.44;;;;;;;4.81;67.17;100861.20;458327;116;922513;-82
2022/12/24 00:39:39;;;;;;;18.95;17.11;;;;;;;4.81;67.10;100866.61;458238;116;922507;-84
2022/12/24 00:40:42;;;;;;;18.18;16.26;;;;;;;4.82;67.22;100862.90;458165;116;930402;-82
2022/12/24 00:41:46;;;;;;;18.76;16.85;;;;;;;4.83;67.12;100860.03;458385;116;922601;-82
2022/12/24 00:42:49;;;;;;;18.42;15.52;;;;;;;4.82;67.22;100860.20;461445;115;922812;-81
2022/12/24 00:43:58;;;;;;;19.09;17.06;;;;;;;4.82;67.22;100860.20;462109;115;922837;-82
2022/12/24 00:45:01;;;;;;;17.87;16.20;;;;;;;4.82;67.21;100858.34;461891;115;922595;-83
2022/12/24 00:46:05;;;;;;;20.62;17.62;;;;;;;4.82;67.22;100862.90;461974;115;923519;-82
2022/12/24 00:47:08;;;;;;;20.46;17.35;;;;;;;4.82;67.06;100860.20;461655;115;922489;-82
2022/12/24 00:48:13;;;;;;;18.86;16.92;;;;;;;4.80;67.11;100854.95;461695;115;922757;-84
2022/12/24 00:49:17;;;;;;;20.29;16.88;;;;;;;4.80;67.17;100859.52;461963;115;922665;-81
2022/12/24 00:50:20;;;;;;;18.31;16.44;;;;;;;4.79;67.21;100855.15;461856;115;922951;-82
2022/12/24 00:51:23;;;;;;;19.23;17.44;;;;;;;4.79;67.30;100856.00;461971;115;922727;-82
2022/12/24 00:52:27;;;;;;;18.84;17.00;;;;;;;4.79;67.28;100852.45;460456;115;922869;-82
2022/12/24 00:53:30;;;;;;;19.96;17.80;;;;;;;4.79;67.29;100852.45;458164;116;922638;-83
2022/12/24 00:54:33;;;;;;;20.76;18.23;;;;;;;4.77;67.23;100847.20;458262;116;922746;-81
2022/12/24 00:55:36;;;;;;;20.91;18.71;;;;;;;4.77;67.35;100851.77;455673;115;922686;-82
2022/12/24 00:56:39;;;;;;;19.41;17.52;;;;;;;4.77;67.28;100855.31;455703;116;922555;-83
2022/12/24 00:57:43;;;;;;;18.89;17.07;;;;;;;4.76;67.26;100848.22;460992;114;922544;-83
2022/12/24 00:58:46;;;;;;;19.44;17.59;;;;;;;4.76;67.40;100850.07;466194;114;923090;-80
2022/12/24 00:59:49;;;;;;;22.53;17.96;;;;;;;4.76;67.31;100852.77;458008;116;922490;-83
2022/12/24 01:00:52;;;;;;;21.74;17.79;;;;;;;4.76;67.42;100853.62;460411;115;922598;-82
2022/12/24 01:01:55;;;;;;;23.74;18.57;;;;;;;4.76;67.34;100850.92;460464;115;922763;-83
2022/12/24 01:02:59;;;;;;;18.56;16.96;;;;;;;4.77;67.42;100854.47;458777;115;922608;-81
2022/12/24 01:05:24;;;;;;;20.03;17.87;;;;;;;4.78;67.61;100846.20;455542;115;922420;-82
2022/12/24 01:06:28;;;;;;;20.38;18.04;;;;;;;4.78;67.60;100850.75;454878;116;922862;-82
2022/12/24 01:07:31;;;;;;;20.11;17.99;;;;;;;4.78;67.56;100848.05;455150;114;922668;-83
2022/12/24 01:08:35;;;;;;;20.63;18.08;;;;;;;4.77;67.57;100843.66;455082;116;922659;-82
2022/12/24 01:09:38;;;;;;;20.06;18.08;;;;;;;4.79;67.62;100849.75;455009;116;922440;-81
2022/12/24 01:10:41;;;;;;;20.04;17.87;;;;;;;4.79;67.76;100847.05;454914;116;922372;-83
2022/12/24 01:11:45;;;;;;;21.66;18.36;;;;;;;4.79;67.80;100847.89;455008;116;930510;-83
2022/12/24 01:12:48;;;;;;;25.23;18.84;;;;;;;4.81;67.71;100842.30;460136;114;922561;-81
2022/12/24 01:13:51;;;;;;;19.94;17.94;;;;;;;4.83;67.77;100845.68;462892;114;922508;-81
2022/12/24 01:14:54;;;;;;;21.61;17.89;;;;;;;4.82;67.83;100844.84;462852;114;922766;-82
2022/12/24 01:15:57;;;;;;;21.79;18.43;;;;;;;4.83;67.87;100843.83;462784;114;922473;-82
2022/12/24 01:17:01;;;;;;;24.86;17.56;;;;;;;4.84;67.69;100841.97;462846;114;930532;-83
2022/12/24 01:18:04;;;;;;;21.25;18.59;;;;;;;4.83;67.68;100837.58;462953;114;922590;-82
2022/12/24 01:19:07;;;;;;;20.33;17.87;;;;;;;4.83;67.72;100843.83;462923;114;922522;-82
2022/12/24 01:20:14;;;;;;;21.66;18.40;;;;;;;4.83;67.72;100842.30;462783;114;922474;-83
2022/12/24 01:21:17;;;;;;;22.02;18.15;;;;;;;4.81;67.60;100842.30;462585;114;930486;-81
2022/12/24 01:22:20;;;;;;;24.05;18.20;;;;;;;4.81;67.61;100839.59;461030;114;922423;-82
2022/12/24 01:23:23;;;;;;;20.43;18.16;;;;;;;4.81;67.70;100842.30;454888;116;922613;-83
2022/12/24 01:24:27;;;;;;;22.67;18.82;;;;;;;4.80;67.58;100841.45;454799;116;922529;-82
2022/12/24 01:25:30;;;;;;;23.43;18.73;;;;;;;4.79;67.64;100834.39;454887;114;922534;-81
2022/12/24 01:26:33;;;;;;;19.37;17.43;;;;;;;4.78;67.62;100837.25;454904;116;922512;-82
2022/12/24 01:27:37;;;;;;;23.45;19.89;;;;;;;4.77;67.57;100832.86;455035;114;922479;-83
2022/12/24 01:28:40;;;;;;;22.54;19.52;;;;;;;4.75;67.67;100824.91;454836;116;922658;-82
2022/12/24 01:29:43;;;;;;;20.09;18.12;;;;;;;4.77;67.71;100832.86;454739;116;930976;-81
2022/12/24 01:30:47;;;;;;;22.14;18.62;;;;;;;4.76;67.76;100828.46;454891;116;922327;-81
2022/12/24 01:31:51;;;;;;;25.21;19.22;;;;;;;4.75;67.69;100830.31;455381;116;922675;-81
2022/12/24 01:32:54;;;;;;;25.92;18.93;;;;;;;4.75;67.85;100829.47;462389;114;922130;-79
2022/12/24 01:33:57;;;;;;;22.12;19.03;;;;;;;4.75;67.92;100829.47;464011;114;922610;-81
2022/12/24 01:35:00;;;;;;;22.67;18.67;;;;;;;4.76;67.92;100828.46;464048;114;922176;-81
2022/12/24 01:36:04;;;;;;;21.26;18.82;;;;;;;4.76;67.90;100832.01;463886;114;922187;-80
2022/12/24 01:37:07;;;;;;;22.09;17.93;;;;;;;4.76;67.96;100823.91;463215;114;921969;-82
2022/12/24 01:38:11;;;;;;;23.92;18.03;;;;;;;4.77;68.00;100825.59;455622;116;922121;-80
2022/12/24 01:39:14;;;;;;;22.35;19.10;;;;;;;4.78;67.92;100826.45;457928;116;922455;-83
2022/12/24 01:44:31;;;;;;;24.29;17.59;;;;;;;4.79;68.02;100822.73;455244;116;922549;-80
2022/12/24 01:45:42;;;;;;;27.19;18.41;;;;;;;4.78;68.02;100824.59;463711;114;922501;-83
2022/12/24 01:46:48;;;;;;;21.27;18.47;;;;;;;4.78;68.16;100821.89;461320;115;922991;-81
2022/12/24 01:47:51;;;;;;;22.91;18.87;;;;;;;4.78;68.19;100824.59;460066;114;922469;-83
2022/12/24 01:49:00;;;;;;;20.99;18.93;;;;;;;4.78;68.08;100821.89;460003;115;922891;-82
2022/12/24 01:50:07;;;;;;;21.52;19.16;;;;;;;4.77;68.14;100820.20;459912;115;922543;-83
2022/12/24 01:51:26;;;;;;;24.64;19.62;;;;;;;4.77;68.06;100814.80;459549;115;922642;-81
2022/12/24 01:52:33;;;;;;;22.57;19.05;;;;;;;4.76;68.15;100820.36;459329;114;922467;-81
2022/12/24 01:53:38;;;;;;;27.93;19.63;;;;;;;4.76;68.02;100820.36;459924;115;922498;-81
2022/12/24 01:54:50;;;;;;;23.44;19.31;;;;;;;4.74;68.04;100819.70;459875;115;923138;-81
2022/12/24 01:55:54;;;;;;;22.79;18.31;;;;;;;4.73;68.12;100821.56;461101;114;922918;-82
2022/12/24 01:57:07;;;;;;;25.81;20.31;;;;;;;4.72;68.00;100819.02;461419;115;922483;-81
2022/12/24 01:58:12;;;;;;;29.13;20.48;;;;;;;4.71;68.09;100822.73;455247;116;922859;-81
2022/12/24 01:59:18;;;;;;;26.62;18.85;;;;;;;4.70;68.03;100821.04;455598;116;922948;-83
2022/12/24 02:00:21;;;;;;;26.14;18.48;;;;;;;4.69;68.07;100822.05;455664;116;922546;-84
2022/12/24 02:01:26;;;;;;;24.77;20.14;;;;;;;4.68;68.02;100817.69;455667;116;922551;-83
2022/12/24 02:02:32;;;;;;;25.37;18.43;;;;;;;4.68;68.15;100818.53;457767;114;922735;-82
2022/12/24 02:03:35;;;;;;;21.49;17.48;;;;;;;4.67;68.19;100813.30;459900;115;922557;-82
2022/12/24 02:04:54;;;;;;;22.72;19.84;;;;;;;4.65;68.18;100809.91;460130;115;922595;-81
2022/12/24 02:05:59;;;;;;;21.88;17.94;;;;;;;4.65;68.18;100809.91;459764;113;922551;-82
2022/12/24 02:07:03;;;;;;;21.02;18.19;;;;;;;4.65;68.21;100804.51;459929;114;922573;-82
2022/12/24 02:08:07;;;;;;;21.28;18.35;;;;;;;4.62;68.12;100808.41;463496;114;922478;-82
2022/12/24 02:09:10;;;;;;;21.92;19.64;;;;;;;4.60;68.13;100811.27;463769;114;923209;-81
2022/12/24 02:10:14;;;;;;;22.56;18.89;;;;;;;4.58;68.23;100802.48;463753;114;922923;-81
2022/12/24 02:11:20;;;;;;;21.55;19.36;;;;;;;4.58;68.27;100804.34;463809;114;922722;-83
2022/12/24 02:12:28;;;;;;;22.64;19.96;;;;;;;4.57;68.35;100799.98;462387;114;922448;-82
2022/12/24 02:13:31;;;;;;;21.23;18.73;;;;;;;4.57;68.24;100810.78;459923;115;922736;-81
2022/12/24 02:14:35;;;;;;;23.50;19.49;;;;;;;4.56;68.38;100806.39;460073;115;922510;-83
2022/12/24 02:16:04;;;;;;;22.72;19.39;;;;;;;4.55;68.28;100808.24;459995;115;922415;-81
2022/12/24 02:17:36;;;;;;;26.87;19.16;;;;;;;4.55;68.48;100808.24;457209;114;922546;-82
2022/12/24 02:18:55;;;;;;;20.51;18.18;;;;;;;4.55;68.51;100802.00;459895;115;922604;-83
2022/12/24 02:20:13;;;;;;;22.44;18.87;;;;;;;4.54;68.48;100805.70;458755;115;922433;-80
2022/12/24 02:21:23;;;;;;;20.47;18.33;;;;;;;4.53;68.62;100804.86;459892;115;922988;-82
2022/12/24 02:22:42;;;;;;;23.52;19.28;;;;;;;4.53;68.62;100807.56;460224;114;922650;-82
2022/12/24 02:24:03;;;;;;;21.99;19.18;;;;;;;4.52;68.80;100805.05;459873;115;922517;-82
2022/12/24 02:25:30;;;;;;;24.21;19.54;;;;;;;4.53;68.72;100809.41;459890;115;922927;-83
2022/12/24 02:27:05;;;;;;;20.65;18.49;;;;;;;4.54;68.85;100806.55;459893;115;922577;-83
2022/12/24 02:28:15;;;;;;;23.02;19.63;;;;;;;4.54;68.88;100811.95;455640;116;922598;-83
2022/12/24 02:29:54;;;;;;;21.22;19.09;;;;;;;4.55;68.93;100804.70;455621;116;922480;-81
2022/12/24 02:31:03;;;;;;;28.08;19.17;;;;;;;4.56;69.11;100809.94;455652;116;922514;-83
2022/12/24 02:32:16;;;;;;;23.41;19.54;;;;;;;4.56;69.03;100811.79;456144;114;922540;-82
2022/12/24 02:33:32;;;;;;;22.74;19.51;;;;;;;4.56;68.99;100814.49;463311;114;922505;-83
2022/12/24 02:34:47;;;;;;;21.00;18.48;;;;;;;4.55;68.98;100816.34;463702;114;922484;-83
2022/12/24 02:36:10;;;;;;;22.98;17.89;;;;;;;4.55;68.97;100818.20;463405;114;922510;-81
2022/12/24 02:37:28;;;;;;;22.92;18.63;;;;;;;4.55;69.09;100821.74;463419;114;922604;-84
2022/12/24 02:38:35;;;;;;;28.13;19.63;;;;;;;4.56;69.27;100823.44;463627;114;922520;-81
2022/12/24 02:39:42;;;;;;;23.17;20.57;;;;;;;4.58;69.27;100818.69;463713;114;922532;-82
2022/12/24 02:40:48;;;;;;;23.49;19.46;;;;;;;4.59;69.27;100819.53;463712;114;922413;-82
2022/12/24 02:42:06;;;;;;;21.01;18.73;;;;;;;4.60;69.19;100813.97;463648;114;922439;-82
2022/12/24 02:43:16;;;;;;;20.61;18.43;;;;;;;4.62;69.20;100819.21;455666;116;922476;-82
2022/12/24 02:44:22;;;;;;;22.09;19.81;;;;;;;4.63;69.17;100820.06;455641;116;922662;-80
2022/12/24 02:45:29;;;;;;;22.07;19.28;;;;;;;4.66;69.25;100819.70;455609;116;922540;-83
2022/12/24 02:46:33;;;;;;;21.33;19.08;;;;;;;4.67;69.27;100824.95;455664;116;922643;-83
2022/12/24 02:47:38;;;;;;;24.27;19.19;;;;;;;4.69;69.24;100822.05;460203;114;922526;-83
2022/12/24 02:48:43;;;;;;;21.84;18.22;;;;;;;4.70;69.35;100827.29;463645;114;922837;-82
2022/12/24 02:49:47;;;;;;;23.83;20.07;;;;;;;4.70;69.33;100824.59;463691;114;922547;-83
2022/12/24 02:50:58;;;;;;;22.75;20.19;;;;;;;4.71;69.23;100826.28;463818;114;922828;-84
2022/12/24 02:52:01;;;;;;;;;;;;;;;4.72;69.27;100821.72;467516;114;922460;-83
2022/12/24 02:53:07;;;;;;;21.95;19.57;;;;;;;4.72;69.10;100824.42;463353;114;922320;-82
2022/12/24 02:54:11;;;;;;;23.70;19.55;;;;;;;4.70;69.11;100827.29;463717;114;922612;-83
2022/12/24 02:55:30;;;;;;;21.87;19.28;;;;;;;4.68;69.10;100825.79;462446;114;922528;-81
2022/12/24 02:56:49;;;;;;;23.51;18.59;;;;;;;4.66;69.17;100817.84;458388;115;930584;-83
2022/12/24 02:58:01;;;;;;;26.53;20.12;;;;;;;4.65;69.21;100828.81;456152;116;922498;-82
2022/12/24 02:59:30;;;;;;;21.74;19.61;;;;;;;4.63;69.08;100832.52;457774;116;922469;-82
2022/12/24 03:00:52;;;;;;;22.63;18.32;;;;;;;4.62;69.18;100830.02;466593;113;922804;-82
2022/12/24 03:02:11;;;;;;;22.25;19.04;;;;;;;4.60;69.17;100832.03;465211;114;922492;-82
2022/12/24 03:03:33;;;;;;;22.78;19.93;;;;;;;4.56;69.20;100826.14;452468;117;922660;-83
2022/12/24 03:04:58;;;;;;;22.24;18.63;;;;;;;4.57;69.18;100829.69;448585;118;922582;-83
2022/12/24 03:06:10;;;;;;;22.13;19.30;;;;;;;4.55;69.22;100819.05;453774;117;922995;-82
2022/12/24 03:07:17;;;;;;;21.31;19.07;;;;;;;4.55;69.26;100826.30;454852;115;923305;-83
2022/12/24 03:08:42;;;;;;;22.25;18.82;;;;;;;4.55;69.32;100832.55;458033;116;922500;-83
2022/12/24 03:10:04;;;;;;;22.74;19.64;;;;;;;4.55;69.38;100835.25;457979;116;923042;-83
2022/12/24 03:11:13;;;;;;;24.16;18.76;;;;;;;4.55;69.35;100827.14;457836;116;922661;-83
2022/12/24 03:12:19;;;;;;;22.16;18.98;;;;;;;4.56;69.39;100823.44;458170;115;922514;-83
2022/12/24 03:13:24;;;;;;;21.69;18.54;;;;;;;4.57;69.48;100821.58;457981;116;922553;-82
2022/12/24 03:14:29;;;;;;;20.53;18.44;;;;;;;4.56;69.38;100820.73;458018;116;922444;-82
2022/12/24 03:15:33;;;;;;;25.61;18.99;;;;;;;4.57;69.34;100822.43;458016;116;922595;-81
2022/12/24 03:16:36;;;;;;;22.44;18.93;;;;;;;4.58;69.45;100826.80;458119;116;922990;-82
2022/12/24 03:17:42;;;;;;;21.90;19.68;;;;;;;4.58;69.37;100823.24;458471;115;922541;-82
2022/12/24 03:18:48;;;;;;;24.40;19.13;;;;;;;4.59;69.46;100828.48;457986;116;922757;-81
2022/12/24 03:19:54;;;;;;;26.17;19.34;;;;;;;4.61;69.49;100828.33;463644;114;922585;-82
2022/12/24 03:21:10;;;;;;;20.86;17.94;;;;;;;4.61;69.49;100826.47;458095;116;922957;-82
2022/12/24 03:22:16;;;;;;;24.27;19.16;;;;;;;4.63;69.37;100833.56;457652;115;922621;-83
2022/12/24 03:23:19;;;;;;;23.64;20.16;;;;;;;4.63;69.37;100830.86;454669;116;922525;-81
2022/12/24 03:24:22;;;;;;;22.58;19.42;;;;;;;4.63;69.46;100832.52;454780;116;922429;-82
2022/12/24 03:25:26;;;;;;;22.74;18.67;;;;;;;4.63;69.38;100834.41;454869;115;922530;-83
2022/12/24 03:26:32;;;;;;;21.18;19.04;;;;;;;4.63;69.40;100825.46;454825;116;922484;-83
2022/12/24 03:27:37;;;;;;;23.17;20.00;;;;;;;4.65;69.52;100828.81;458401;114;922726;-82
2022/12/24 03:28:41;;;;;;;21.77;19.11;;;;;;;4.65;69.44;100826.96;462743;114;922521;-81
2022/12/24 03:29:45;;;;;;;27.24;19.68;;;;;;;4.66;69.43;100833.20;462777;114;922832;-81
2022/12/24 03:30:49;;;;;;;22.19;19.05;;;;;;;4.67;69.41;100832.20;462858;114;922976;-82
2022/12/24 03:31:54;;;;;;;29.40;20.68;;;;;;;4.67;69.52;100832.20;462930;114;923024;-83
2022/12/24 03:32:58;;;;;;;22.79;20.32;;;;;;;4.67;69.45;100824.09;462246;114;922601;-83
2022/12/24 03:34:01;;;;;;;20.66;18.56;;;;;;;4.67;69.45;100829.50;462860;114;922510;-84
2022/12/24 03:35:05;;;;;;;22.19;19.71;;;;;;;4.67;69.51;100830.34;462868;114;923013;-83
2022/12/24 03:36:09;;;;;;;23.08;18.95;;;;;;;4.68;69.56;100832.03;462715;114;922551;-83
2022/12/24 03:37:12;;;;;;;21.59;18.82;;;;;;;4.69;69.62;100836.40;462581;114;922600;-82
2022/12/24 03:38:16;;;;;;;21.23;18.85;;;;;;;4.69;69.63;100830.15;462855;114;930495;-81
2022/12/24 03:39:19;;;;;;;20.62;18.13;;;;;;;4.70;69.54;100831.84;462943;114;922671;-82
2022/12/24 03:40:22;;;;;;;21.13;18.31;;;;;;;4.71;69.57;100828.98;462882;114;922476;-81
2022/12/24 03:41:25;;;;;;;23.73;19.00;;;;;;;4.72;69.58;100832.53;462898;114;922893;-81
2022/12/24 03:42:28;;;;;;;22.26;19.20;;;;;;;4.72;69.60;100835.23;462611;114;922955;-82
2022/12/24 03:43:31;;;;;;;22.74;19.37;;;;;;;4.73;69.52;100828.82;462915;114;922494;-83
2022/12/24 03:44:34;;;;;;;20.61;18.45;;;;;;;4.72;69.70;100821.72;462945;114;922583;-84
2022/12/24 03:45:38;;;;;;;19.99;17.94;;;;;;;4.74;69.81;100823.22;462825;114;922799;-80
2022/12/24 03:46:41;;;;;;;19.66;17.67;;;;;;;4.75;69.76;100824.91;462896;114;922489;-83
2022/12/24 03:47:44;;;;;;;24.17;18.83;;;;;;;4.78;69.79;100824.59;456518;114;922666;-83
2022/12/24 03:48:47;;;;;;;21.06;18.14;;;;;;;4.80;69.74;100825.23;452962;117;922863;-82
2022/12/24 03:49:51;;;;;;;25.61;18.81;;;;;;;4.81;69.72;100828.78;452953;117;922474;-82
2022/12/24 03:50:54;;;;;;;22.38;19.33;;;;;;;4.82;69.72;100823.22;452900;117;922589;-82
2022/12/24 03:51:57;;;;;;;25.04;18.45;;;;;;;4.84;69.89;100821.20;452945;117;922870;-82
2022/12/24 03:53:01;;;;;;;20.13;18.24;;;;;;;4.85;69.80;100825.56;462449;114;922510;-83
2022/12/24 03:54:04;;;;;;;20.37;18.29;;;;;;;4.87;69.83;100825.41;462946;114;922989;-80
2022/12/24 03:55:07;;;;;;;21.25;19.20;;;;;;;4.89;69.82;100824.23;462960;114;922796;-80
2022/12/24 03:56:11;;;;;;;20.86;18.67;;;;;;;4.92;69.98;100828.43;462818;114;922785;-81
2022/12/24 03:57:14;;;;;;;21.54;19.21;;;;;;;4.93;69.89;100827.42;461783;114;922566;-81
2022/12/24 03:58:17;;;;;;;21.17;18.95;;;;;;;4.95;70.02;100828.95;454863;116;922427;-83
2022/12/24 03:59:20;;;;;;;20.80;18.53;;;;;;;4.96;69.99;100833.31;454892;116;922830;-80
2022/12/24 04:00:24;;;;;;;19.94;17.55;;;;;;;4.99;70.00;100830.28;454784;115;922543;-82
2022/12/24 04:01:27;;;;;;;21.33;18.39;;;;;;;5.01;69.96;100835.52;454792;116;922512;-82
2022/12/24 04:02:30;;;;;;;20.37;18.20;;;;;;;5.02;69.88;100831.78;457992;114;930547;-83
2022/12/24 04:03:34;;;;;;;19.68;17.81;;;;;;;5.02;69.73;100837.19;462806;114;922776;-83
2022/12/24 04:04:37;;;;;;;21.32;18.84;;;;;;;5.02;69.66;100829.92;453819;117;923038;-82
2022/12/24 04:05:40;;;;;;;20.76;18.73;;;;;;;5.02;69.71;100834.48;457728;113;922658;-82
2022/12/24 04:06:43;;;;;;;21.02;18.89;;;;;;;5.04;69.83;100829.76;466961;113;922571;-80
2022/12/24 04:07:47;;;;;;;21.79;17.74;;;;;;;5.04;69.81;100824.35;471635;111;922409;-81
2022/12/24 04:08:50;;;;;;;22.86;20.28;;;;;;;5.06;69.95;100821.48;473433;112;922914;-82
2022/12/24 04:09:53;;;;;;;22.84;20.11;;;;;;;5.06;69.96;100830.44;473544;112;922476;-80
2022/12/24 04:10:57;;;;;;;20.80;18.79;;;;;;;5.08;69.88;100832.95;473426;112;922576;-81
2022/12/24 04:12:00;;;;;;;22.92;20.07;;;;;;;5.07;69.64;100845.64;473211;111;930429;-82
2022/12/24 04:13:03;;;;;;;21.82;19.59;;;;;;;5.05;69.59;100842.27;467010;113;923018;-82
2022/12/24 04:14:06;;;;;;;24.17;20.40;;;;;;;5.02;69.39;100845.29;467068;113;922837;-83
2022/12/24 04:15:10;;;;;;;22.26;19.95;;;;;;;4.99;69.49;100832.14;466983;113;923312;-80
2022/12/24 04:16:15;;;;;;;22.70;20.51;;;;;;;4.98;69.53;100833.15;466891;113;922876;-82
2022/12/24 04:17:18;;;;;;;24.81;20.51;;;;;;;4.97;69.60;100834.16;469404;111;930474;-82
2022/12/24 04:18:22;;;;;;;25.54;20.93;;;;;;;4.97;69.65;100844.97;475499;111;922768;-80
2022/12/24 04:19:25;;;;;;;25.82;20.20;;;;;;;4.97;69.62;100836.86;475512;111;922834;-82
2022/12/24 04:20:28;;;;;;;22.32;19.96;;;;;;;4.95;69.68;100847.86;475493;111;922483;-81
2022/12/24 04:21:31;;;;;;;21.06;18.77;;;;;;;4.95;69.73;100842.45;475500;111;922761;-82
2022/12/24 04:22:34;;;;;;;22.58;19.29;;;;;;;4.95;69.64;100836.20;475893;109;922015;-79
2022/12/24 04:23:39;;;;;;;22.17;18.01;;;;;;;4.95;69.69;100842.45;476827;109;922099;-80
2022/12/24 04:24:42;;;;;;;22.22;17.92;;;;;;;4.97;69.77;100839.56;476688;109;922616;-80
2022/12/24 04:25:46;;;;;;;22.83;20.59;;;;;;;4.96;69.78;100830.61;476772;109;923036;-82
2022/12/24 04:26:49;;;;;;;23.77;19.96;;;;;;;4.97;69.78;100837.70;476832;109;921990;-81
2022/12/24 04:27:52;;;;;;;22.22;19.94;;;;;;;4.99;69.83;100837.55;476139;111;922239;-81
2022/12/24 04:28:55;;;;;;;23.12;20.70;;;;;;;5.00;69.87;100831.98;476843;109;922030;-80
2022/12/24 04:29:58;;;;;;;23.99;19.67;;;;;;;5.02;69.86;100837.19;476848;109;922290;-81
2022/12/24 04:31:08;;;;;;;23.09;20.81;;;;;;;5.02;69.79;100842.59;476831;107;922137;-80
2022/12/24 04:32:11;;;;;;;22.01;19.59;;;;;;;5.01;69.83;100832.82;476608;111;922287;-81
2022/12/24 04:33:15;;;;;;;20.66;18.64;;;;;;;5.00;69.68;100839.23;476851;109;922274;-81
2022/12/24 04:34:18;;;;;;;20.84;18.57;;;;;;;4.98;69.73;100833.15;476814;109;922437;-80
2022/12/24 04:35:21;;;;;;;27.65;19.62;;;;;;;4.98;69.89;100839.40;476823;111;922664;-82
2022/12/24 04:36:24;;;;;;;20.91;18.86;;;;;;;4.99;69.99;100822.17;476827;111;922514;-79
2022/12/24 04:37:27;;;;;;;26.61;19.84;;;;;;;5.00;69.97;100820.32;476057;111;922013;-80
2022/12/24 04:38:31;;;;;;;22.54;19.74;;;;;;;5.01;69.98;100830.97;474837;110;922015;-81
2022/12/24 04:39:34;;;;;;;21.58;18.54;;;;;;;5.03;70.05;100834.31;472000;112;922002;-80
2022/12/24 04:40:38;;;;;;;20.40;18.25;;;;;;;5.03;69.88;100844.28;469012;112;921882;-80
2022/12/24 04:41:41;;;;;;;19.30;17.66;;;;;;;5.02;69.85;100838.03;468990;113;921895;-79
2022/12/24 04:42:44;;;;;;;23.82;18.78;;;;;;;5.02;69.83;100843.44;471226;111;922088;-81
2022/12/24 04:43:47;;;;;;;29.16;20.48;;;;;;;5.02;69.84;100846.13;472884;112;922118;-78
2022/12/24 04:44:51;;;;;;;27.00;21.34;;;;;;;5.02;69.96;100843.44;471897;112;922336;-80
2022/12/24 04:45:54;;;;;;;31.81;24.11;;;;;;;5.03;69.88;100849.69;471854;112;922464;-82
2022/12/24 04:46:57;;;;;;;31.52;23.63;;;;;;;5.03;69.94;100836.17;471749;112;922542;-80
2022/12/24 04:48:00;;;;;;;33.81;25.19;;;;;;;5.03;69.82;100844.28;471546;112;930156;-82
2022/12/24 04:49:04;;;;;;;32.41;24.43;;;;;;;5.03;69.78;100844.28;471830;112;922538;-81
2022/12/24 04:50:08;;;;;;;33.84;25.34;;;;;;;5.03;69.71;100850.53;471659;112;922594;-83
2022/12/24 04:51:12;;;;;;;33.96;23.36;;;;;;;5.03;69.61;100846.98;471679;112;922450;-81
2022/12/24 04:52:16;;;;;;;33.48;25.44;;;;;;;5.01;69.57;100846.33;470095;112;922440;-81
2022/12/24 04:53:19;;;;;;;32.29;25.37;;;;;;;5.00;69.54;100844.64;463421;114;922905;-82
2022/12/24 04:54:22;;;;;;;30.12;23.67;;;;;;;5.00;69.52;100844.64;463455;114;922471;-83
2022/12/24 04:55:26;;;;;;;33.72;25.18;;;;;;;4.99;69.49;100845.65;463805;112;922980;-81
2022/12/24 04:56:30;;;;;;;37.11;25.86;;;;;;;4.99;69.50;100837.55;464433;113;922498;-81
2022/12/24 04:57:34;;;;;;;29.91;25.18;;;;;;;4.99;69.49;100842.95;467714;112;922559;-82
2022/12/24 04:58:37;;;;;;;30.99;24.77;;;;;;;4.98;69.52;100849.36;471554;112;930507;-82
2022/12/24 04:59:41;;;;;;;32.88;25.13;;;;;;;4.98;69.52;100849.36;471664;112;922765;-84
2022/12/24 05:00:44;;;;;;;32.76;25.37;;;;;;;4.97;69.51;100845.81;471671;112;923179;-83
2022/12/24 05:01:47;;;;;;;34.06;25.51;;;;;;;4.97;69.52;100844.97;471625;112;922497;-84
2022/12/24 05:02:50;;;;;;;29.92;22.74;;;;;;;4.97;69.51;100844.97;470770;112;922552;-81
2022/12/24 05:03:54;;;;;;;28.21;24.98;;;;;;;4.97;69.54;100845.81;471481;112;930325;-83
2022/12/24 05:04:57;;;;;;;31.26;24.09;;;;;;;4.97;69.66;100845.81;471477;112;930298;-82